Time;durP1;ratioP1;P1;durP2;ratioP2;P2;SDS_P1;SDS_P2;PMS_P1;PMS_P2;Temp;Humidity;BMP_temperature;BMP_pressure;BME280_temperature;BME280_humidity;BME280_pressure;Samples;Min_cycle;Max_cycle;Signal;HPM_P1;HPM_P2
2022/07/18 00:01:50;;;;;;;4.68;2.72;;;;;;;17.99;55.39;102219.16;4969373;28;20109;-86
2022/07/18 00:04:15;;;;;;;5.35;3.03;;;;;;;17.97;55.93;102205.75;4970211;28;20042;-85
2022/07/18 00:06:40;;;;;;;6.55;3.00;;;;;;;17.95;55.70;102206.81;4971055;28;20455;-86
2022/07/18 00:09:06;;;;;;;7.65;2.92;;;;;;;17.89;55.39;102199.97;4972729;28;20022;-86
2022/07/18 00:11:31;;;;;;;4.88;2.90;;;;;;;17.86;56.01;102195.66;4972462;28;20030;-86
2022/07/18 00:13:57;;;;;;;6.53;2.67;;;;;;;17.89;56.04;102197.28;4970906;28;20066;-86
2022/07/18 00:16:23;;;;;;;4.82;2.63;;;;;;;17.81;56.59;102207.66;4970545;28;20054;-86
2022/07/18 00:18:49;;;;;;;4.43;2.92;;;;;;;17.77;57.20;102200.72;4972483;28;20034;-85
2022/07/18 00:21:15;;;;;;;6.20;2.80;;;;;;;17.62;57.64;102202.44;4971265;28;20074;-85
2022/07/18 00:23:40;;;;;;;3.95;2.40;;;;;;;17.52;58.33;102204.81;4971078;28;20058;-86
2022/07/18 00:26:05;;;;;;;5.40;2.80;;;;;;;17.46;58.56;102202.47;4971596;28;20127;-86
2022/07/18 00:28:31;;;;;;;5.82;2.72;;;;;;;17.38;59.04;102204.75;4970829;28;20689;-86
2022/07/18 00:30:56;;;;;;;4.85;2.50;;;;;;;17.29;59.48;102190.00;4967543;28;20480;-86
2022/07/18 00:33:21;;;;;;;3.20;2.67;;;;;;;17.22;58.95;102193.13;4953791;28;20355;-85
2022/07/18 00:35:47;;;;;;;4.30;2.63;;;;;;;17.12;59.76;102190.97;4969602;28;20027;-86
2022/07/18 00:38:12;;;;;;;4.18;2.50;;;;;;;17.10;59.98;102181.28;4970126;28;20023;-86
2022/07/18 00:40:37;;;;;;;4.70;2.67;;;;;;;16.99;59.67;102184.56;4983555;28;20038;-86
2022/07/18 00:43:03;;;;;;;5.65;2.47;;;;;;;16.92;59.33;102181.34;4967006;28;20042;-86
2022/07/18 00:45:28;;;;;;;3.88;2.60;;;;;;;16.91;59.68;102184.97;4965817;28;20483;-86
2022/07/18 00:47:54;;;;;;;4.75;2.80;;;;;;;16.85;59.80;102179.09;4968875;28;20135;-86
2022/07/18 00:50:21;;;;;;;4.93;2.60;;;;;;;16.80;60.15;102182.03;4970622;28;20026;-87
2022/07/18 00:52:47;;;;;;;4.93;2.63;;;;;;;16.79;60.35;102184.81;4969812;28;20054;-86
2022/07/18 00:55:13;;;;;;;6.93;2.45;;;;;;;16.76;60.36;102180.50;4970359;28;20034;-87
2022/07/18 00:57:40;;;;;;;4.75;2.40;;;;;;;16.76;60.08;102177.78;4969028;28;20050;-86
2022/07/18 01:02:53;;;;;;;4.40;2.70;;;;;;;16.76;60.54;102175.09;4970039;28;20575;-86
2022/07/18 01:05:18;;;;;;;4.88;2.47;;;;;;;16.72;60.30;102176.19;4966489;28;20059;-86
2022/07/18 01:07:44;;;;;;;3.58;2.40;;;;;;;16.77;60.64;102176.84;4966706;28;20674;-87
2022/07/18 01:10:09;;;;;;;9.20;2.67;;;;;;;16.78;60.34;102166.94;4958672;28;20043;-86
2022/07/18 01:12:34;;;;;;;5.13;2.80;;;;;;;16.76;60.72;102164.34;4949815;28;20035;-86
2022/07/18 01:15:00;;;;;;;5.05;2.70;;;;;;;16.78;60.90;102164.25;4967369;28;20583;-88
2022/07/18 01:17:25;;;;;;;5.50;2.70;;;;;;;16.81;60.94;102161.41;4969242;28;20035;-86
2022/07/18 01:19:50;;;;;;;5.35;2.70;;;;;;;16.80;60.54;102163.19;4970088;28;20090;-87
2022/07/18 01:22:18;;;;;;;3.00;2.47;;;;;;;16.79;60.94;102164.16;4970885;28;20023;-86
2022/07/18 01:24:44;;;;;;;4.00;2.60;;;;;;;16.75;60.85;102159.91;4968990;28;20097;-86
2022/07/18 01:27:18;;;;;;;4.45;2.55;;;;;;;16.75;60.14;102157.22;4969535;28;20035;-87
2022/07/18 01:29:45;;;;;;;4.57;2.60;;;;;;;16.68;60.84;102153.13;4969061;28;20449;-86
2022/07/18 01:32:11;;;;;;;4.15;2.78;;;;;;;16.66;60.89;102152.31;4970151;28;20477;-86
2022/07/18 01:34:37;;;;;;;4.47;2.83;;;;;;;16.64;61.11;102154.25;4981756;28;20027;-87
2022/07/18 01:37:04;;;;;;;4.68;2.90;;;;;;;16.58;60.79;102149.19;4968809;28;20062;-85
2022/07/18 01:39:29;;;;;;;5.13;2.85;;;;;;;16.51;61.22;102142.41;4969240;28;20469;-85
2022/07/18 01:41:59;;;;;;;4.07;2.58;;;;;;;16.49;61.45;102149.72;4968852;28;20026;-85
2022/07/18 01:44:27;;;;;;;3.67;2.70;;;;;;;16.44;61.60;102150.81;4968557;28;20352;-85
2022/07/18 01:46:52;;;;;;;4.13;2.80;;;;;;;16.41;61.78;102150.13;4966558;28;20070;-86
2022/07/18 01:49:18;;;;;;;5.30;2.67;;;;;;;16.36;61.93;102149.50;4969783;28;20027;-85
2022/07/18 01:51:48;;;;;;;4.45;3.15;;;;;;;16.31;62.51;102151.59;4972753;28;20085;-85
2022/07/18 01:54:14;;;;;;;5.97;2.80;;;;;;;16.19;62.86;102148.59;4970742;28;20053;-85
2022/07/18 01:56:39;;;;;;;5.53;2.75;;;;;;;16.11;63.13;102152.66;4970448;28;20065;-86
2022/07/18 01:59:05;;;;;;;5.18;2.40;;;;;;;16.05;63.14;102156.53;4971198;28;20077;-85
2022/07/18 02:01:30;;;;;;;5.65;2.60;;;;;;;16.04;63.80;102159.28;4962061;28;20073;-85
2022/07/18 02:03:56;;;;;;;6.88;2.50;;;;;;;15.99;63.76;102150.63;4959546;28;20289;-86
2022/07/18 02:06:21;;;;;;;4.20;2.60;;;;;;;15.90;64.08;102147.47;4962853;28;20031;-86
2022/07/18 02:08:46;;;;;;;5.05;2.58;;;;;;;15.86;64.48;102147.72;4973053;28;20034;-85
2022/07/18 02:11:11;;;;;;;6.18;2.75;;;;;;;15.84;64.29;102150.47;4973452;28;20115;-86
2022/07/18 02:13:37;;;;;;;4.75;2.60;;;;;;;15.82;64.66;102149.69;4960814;28;20076;-86
2022/07/18 02:16:03;;;;;;;4.35;2.65;;;;;;;15.76;64.93;102150.00;4976588;28;20034;-86
2022/07/18 02:18:32;;;;;;;4.22;2.55;;;;;;;15.74;64.88;102153.72;4959775;28;20250;-86
2022/07/18 02:20:57;;;;;;;5.45;2.88;;;;;;;15.72;64.87;102147.53;4960691;28;20448;-86
2022/07/18 02:23:23;;;;;;;4.97;2.50;;;;;;;15.67;64.75;102139.72;4958388;28;20026;-86
2022/07/18 02:25:48;;;;;;;3.85;2.67;;;;;;;15.65;65.23;102134.44;4959973;28;20062;-86
2022/07/18 02:28:13;;;;;;;3.78;2.63;;;;;;;15.65;65.05;102130.91;4970821;28;20045;-86
2022/07/18 02:30:38;;;;;;;2.60;2.30;;;;;;;15.59;65.16;102125.81;4970564;28;20148;-86
2022/07/18 02:33:04;;;;;;;5.85;2.58;;;;;;;15.57;65.35;102117.84;4969922;28;20499;-86
2022/07/18 02:35:29;;;;;;;4.82;3.17;;;;;;;15.55;65.32;102118.84;4970787;28;20030;-86
2022/07/18 02:37:54;;;;;;;4.60;2.65;;;;;;;15.55;65.22;102121.53;4976239;28;20022;-86
2022/07/18 02:40:20;;;;;;;5.95;3.22;;;;;;;15.51;65.61;102122.63;4975043;28;20037;-86
2022/07/18 02:42:45;;;;;;;4.95;2.95;;;;;;;15.39;66.33;102118.78;4980238;28;20066;-86
2022/07/18 02:45:10;;;;;;;4.60;2.88;;;;;;;15.38;66.17;102112.56;4990050;28;20524;-86
2022/07/18 02:47:36;;;;;;;4.53;2.65;;;;;;;15.34;66.56;102126.19;4991753;28;20038;-85
2022/07/18 02:50:02;;;;;;;4.75;2.72;;;;;;;15.34;66.21;102127.06;4993214;28;20070;-86
2022/07/18 02:52:27;;;;;;;6.18;3.20;;;;;;;15.35;66.16;102134.16;4990640;28;20034;-86
2022/07/18 02:54:52;;;;;;;4.40;2.70;;;;;;;15.36;66.19;102119.81;4980660;28;20062;-86
2022/07/18 02:57:18;;;;;;;3.17;2.80;;;;;;;15.35;66.31;102111.84;4971083;28;20027;-86
2022/07/18 02:59:45;;;;;;;5.53;2.85;;;;;;;15.40;66.15;102117.84;4972163;28;20061;-86
2022/07/18 03:02:10;;;;;;;4.30;2.80;;;;;;;15.38;66.26;102117.03;4972603;28;20050;-86
2022/07/18 03:04:35;;;;;;;4.18;2.88;;;;;;;15.37;66.09;102116.16;4966338;28;20512;-86
2022/07/18 03:07:01;;;;;;;3.67;2.70;;;;;;;15.29;66.05;102123.72;4958282;28;20027;-86
2022/07/18 03:09:27;;;;;;;6.50;3.15;;;;;;;15.31;66.19;102127.22;4972918;28;20377;-86
2022/07/18 03:11:54;;;;;;;8.13;2.90;;;;;;;15.25;66.17;102119.47;4971792;28;20147;-86
2022/07/18 03:14:20;;;;;;;3.92;2.80;;;;;;;15.19;66.74;102117.09;4972200;28;20031;-86
2022/07/18 03:16:46;;;;;;;4.25;3.20;;;;;;;15.11;66.77;102112.13;4970664;28;20129;-86
2022/07/18 03:19:11;;;;;;;5.22;3.10;;;;;;;15.06;66.90;102116.84;4972242;28;20528;-86
2022/07/18 03:21:36;;;;;;;5.45;3.20;;;;;;;14.99;67.14;102110.03;4970257;28;20104;-86
2022/07/18 03:24:02;;;;;;;6.40;3.10;;;;;;;15.00;67.14;102097.50;4971354;28;20066;-85
2022/07/18 03:26:27;;;;;;;5.00;3.40;;;;;;;14.93;67.15;102094.28;4970376;28;20030;-86
2022/07/18 03:28:53;;;;;;;7.43;3.22;;;;;;;14.97;66.99;102089.63;4970925;28;20050;-86
2022/07/18 03:31:19;;;;;;;6.60;3.55;;;;;;;15.00;67.15;102094.81;4972830;28;20031;-86
2022/07/18 03:33:44;;;;;;;5.07;3.22;;;;;;;15.04;67.31;102088.38;4971191;28;20062;-86
2022/07/18 03:36:10;;;;;;;6.28;3.70;;;;;;;15.05;65.98;102088.31;4972225;28;20114;-86
2022/07/18 03:38:42;;;;;;;6.85;3.50;;;;;;;15.08;65.92;102088.13;4971733;28;20050;-86
2022/07/18 03:41:08;;;;;;;5.63;4.00;;;;;;;15.11;65.46;102087.13;4969004;28;20035;-86
2022/07/18 03:43:34;;;;;;;6.10;3.95;;;;;;;15.11;64.59;102065.66;4970203;28;20445;-86
2022/07/18 03:45:59;;;;;;;6.32;4.40;;;;;;;15.14;64.07;102076.25;4982869;28;20023;-86
2022/07/18 03:48:24;;;;;;;6.25;4.30;;;;;;;15.13;64.01;102077.16;4959920;28;20019;-85
2022/07/18 03:50:50;;;;;;;8.55;4.40;;;;;;;15.14;64.37;102073.56;4969377;28;20542;-86
2022/07/18 03:53:15;;;;;;;9.00;4.43;;;;;;;15.14;64.09;102070.88;4968399;28;20125;-86
2022/07/18 03:55:40;;;;;;;8.55;4.25;;;;;;;15.16;64.08;102077.03;4971385;28;20022;-86
2022/07/18 03:58:05;;;;;;;8.50;4.65;;;;;;;15.18;64.05;102081.38;4970510;28;20029;-86
2022/07/18 04:00:31;;;;;;;7.82;5.05;;;;;;;15.16;64.05;102082.38;4970350;28;20027;-86
2022/07/18 04:02:56;;;;;;;7.30;4.30;;;;;;;15.24;63.83;102079.31;4969824;28;20085;-85
2022/07/18 04:05:21;;;;;;;6.78;4.38;;;;;;;15.21;64.51;102077.66;4969246;28;20030;-86
2022/07/18 04:07:47;;;;;;;8.48;3.75;;;;;;;15.26;64.85;102088.16;4972072;28;20031;-85
2022/07/18 04:10:13;;;;;;;7.85;3.60;;;;;;;15.25;64.89;102081.06;4970108;28;20445;-86
2022/07/18 04:12:49;;;;;;;5.22;3.50;;;;;;;15.24;64.92;102087.38;4971269;28;20045;-86
2022/07/18 04:15:16;;;;;;;6.55;3.85;;;;;;;15.21;64.76;102083.00;4970436;28;20022;-86
2022/07/18 04:17:41;;;;;;;5.88;4.38;;;;;;;15.20;65.05;102082.16;4970893;28;20030;-86
2022/07/18 04:20:08;;;;;;;4.85;4.13;;;;;;;15.24;64.86;102082.88;4967923;28;20046;-86
2022/07/18 04:22:51;;;;;;;8.30;4.25;;;;;;;15.28;64.92;102079.09;4968427;28;20093;-86
2022/07/18 04:25:18;;;;;;;5.50;3.83;;;;;;;15.29;65.65;102082.63;4970141;28;20033;-86
2022/07/18 04:27:44;;;;;;;5.60;3.50;;;;;;;15.23;66.42;102078.47;4969183;28;20508;-86
2022/07/18 04:30:10;;;;;;;6.45;3.47;;;;;;;15.25;66.36;102071.19;4968278;28;20034;-86
2022/07/18 04:32:35;;;;;;;6.70;3.90;;;;;;;15.21;67.06;102061.56;4967747;28;20034;-86
2022/07/18 04:35:01;;;;;;;5.05;3.70;;;;;;;15.23;66.35;102065.06;4968853;28;20026;-86
2022/07/18 04:37:29;;;;;;;7.68;3.92;;;;;;;15.25;66.61;102068.50;4969721;28;20409;-86
2022/07/18 04:39:55;;;;;;;5.68;4.10;;;;;;;15.24;66.44;102056.06;4968607;28;20031;-86
2022/07/18 04:42:20;;;;;;;6.68;4.90;;;;;;;15.20;66.39;102049.97;4967706;28;20037;-85
2022/07/18 04:44:45;;;;;;;7.55;4.75;;;;;;;15.28;66.13;102056.75;4969870;28;20046;-85
2022/07/18 04:47:11;;;;;;;7.07;4.53;;;;;;;15.32;66.15;102056.53;4968821;28;20078;-86
2022/07/18 04:49:36;;;;;;;8.10;4.72;;;;;;;15.34;66.18;102051.97;4968416;28;20036;-86
2022/07/18 04:52:01;;;;;;;6.97;4.75;;;;;;;15.45;66.00;102060.31;4967882;28;20034;-86
2022/07/18 04:54:27;;;;;;;10.70;5.22;;;;;;;15.52;65.29;102060.00;4969916;28;20055;-86
2022/07/18 04:56:52;;;;;;;9.30;5.25;;;;;;;15.57;65.29;102066.00;4969118;28;20033;-86
2022/07/18 04:59:17;;;;;;;8.10;5.28;;;;;;;15.66;62.79;102065.53;4977345;28;20047;-86
2022/07/18 05:01:42;;;;;;;10.48;5.03;;;;;;;15.75;62.16;102069.53;4967291;28;20031;-86
2022/07/18 05:04:08;;;;;;;8.63;5.40;;;;;;;15.79;60.59;102063.94;4968605;28;20421;-86
2022/07/18 05:06:33;;;;;;;9.35;5.55;;;;;;;15.92;60.69;102070.38;4969076;28;20547;-86
2022/07/18 05:08:58;;;;;;;8.73;5.03;;;;;;;15.99;60.43;102068.22;4982138;28;20062;-86
2022/07/18 05:11:23;;;;;;;8.73;6.03;;;;;;;16.06;59.92;102066.97;4967156;28;20031;-86
2022/07/18 05:13:49;;;;;;;8.02;5.28;;;;;;;16.24;59.72;102069.59;4966808;28;20034;-86
2022/07/18 05:16:14;;;;;;;9.43;5.30;;;;;;;16.34;59.19;102060.91;4969909;28;20061;-86
2022/07/18 05:18:40;;;;;;;10.32;5.63;;;;;;;16.43;58.31;102062.25;4984502;28;20082;-86
2022/07/18 05:21:05;;;;;;;10.10;5.65;;;;;;;16.53;58.56;102065.28;4969507;28;20043;-86
2022/07/18 05:23:30;;;;;;;8.65;5.05;;;;;;;16.53;58.01;102068.81;4972609;28;20037;-85
2022/07/18 05:25:55;;;;;;;7.80;5.50;;;;;;;16.57;57.62;102062.31;4972756;28;20030;-86
2022/07/18 05:28:21;;;;;;;11.02;5.28;;;;;;;16.60;58.14;102056.78;4973234;28;20054;-86
2022/07/18 05:30:46;;;;;;;10.45;5.90;;;;;;;16.69;57.72;102069.69;4972563;28;20065;-86
2022/07/18 05:33:11;;;;;;;10.20;5.63;;;;;;;16.73;57.69;102062.34;4973105;28;20090;-86
2022/07/18 05:35:37;;;;;;;11.57;6.13;;;;;;;16.82;57.72;102069.88;4972357;28;20097;-85
2022/07/18 05:38:03;;;;;;;11.45;5.63;;;;;;;16.90;57.57;102070.31;4973919;28;20039;-86
2022/07/18 05:40:28;;;;;;;6.70;5.22;;;;;;;17.01;57.51;102068.81;4971704;28;20122;-86
2022/07/18 05:42:53;;;;;;;10.95;6.57;;;;;;;17.11;57.09;102067.31;4971337;28;20034;-85
2022/07/18 05:45:19;;;;;;;8.98;5.45;;;;;;;17.24;57.26;102060.25;4973592;28;20029;-85
2022/07/18 05:47:44;;;;;;;9.48;5.50;;;;;;;17.42;56.45;102067.22;4974329;28;20026;-85
2022/07/18 05:50:09;;;;;;;11.32;5.88;;;;;;;17.63;55.79;102067.72;4972114;28;20071;-86
2022/07/18 05:52:35;;;;;;;11.95;5.80;;;;;;;17.85;55.87;102071.84;4972184;28;20125;-86
2022/07/18 05:55:01;;;;;;;12.02;6.20;;;;;;;18.03;54.36;102068.00;4972559;28;20050;-86
2022/07/18 05:57:26;;;;;;;10.55;5.47;;;;;;;18.24;53.71;102068.47;4976305;28;20025;-84
2022/07/18 05:59:51;;;;;;;14.27;5.95;;;;;;;18.42;53.26;102075.38;4985442;28;20444;-85
2022/07/18 06:02:16;;;;;;;8.88;5.60;;;;;;;18.65;53.20;102070.34;4983175;28;20464;-85
2022/07/18 06:04:42;;;;;;;13.77;6.10;;;;;;;18.79;52.26;102064.06;4992565;28;20030;-85
2022/07/18 06:07:07;;;;;;;7.47;5.85;;;;;;;18.98;50.99;102063.69;4990639;28;20041;-84
2022/07/18 06:09:32;;;;;;;7.95;5.50;;;;;;;19.16;51.70;102051.66;4995039;28;20042;-84
2022/07/18 06:11:59;;;;;;;11.63;6.03;;;;;;;19.42;50.77;102055.28;4995169;28;20023;-85
2022/07/18 06:14:28;;;;;;;11.90;6.63;;;;;;;19.68;50.57;102055.31;4992555;28;20047;-85
2022/07/18 06:16:53;;;;;;;9.75;6.13;;;;;;;19.97;49.71;102061.38;4991943;28;20035;-85
2022/07/18 06:19:18;;;;;;;11.63;5.65;;;;;;;20.27;49.30;102055.59;4984693;28;20523;-85
2022/07/18 06:21:43;;;;;;;11.65;5.88;;;;;;;20.61;48.74;102065.72;4971301;28;20029;-85
2022/07/18 06:24:09;;;;;;;10.60;5.80;;;;;;;20.91;48.67;102068.97;4973546;28;20041;-85
2022/07/18 06:26:34;;;;;;;11.23;5.90;;;;;;;21.11;46.79;102062.91;4973783;28;20022;-85
2022/07/18 06:28:59;;;;;;;8.57;6.00;;;;;;;21.41;46.49;102054.28;4973737;28;20074;-85
2022/07/18 06:31:25;;;;;;;12.43;5.50;;;;;;;21.67;46.49;102041.41;4969958;28;20027;-84
2022/07/18 06:33:50;;;;;;;14.85;7.88;;;;;;;21.79;45.18;102045.88;4971105;28;20073;-84
2022/07/18 06:36:15;;;;;;;11.02;5.95;;;;;;;21.95;44.91;102045.50;4977078;28;20404;-85
2022/07/18 06:38:41;;;;;;;15.13;6.32;;;;;;;22.05;44.16;102049.19;4970890;28;20019;-85
2022/07/18 06:41:06;;;;;;;14.70;6.03;;;;;;;22.19;44.26;102044.53;4972317;28;20074;-85
2022/07/18 06:43:31;;;;;;;11.35;5.63;;;;;;;22.36;45.43;102050.34;4977246;28;20074;-84
2022/07/18 06:45:57;;;;;;;8.45;5.65;;;;;;;22.50;43.85;102042.91;4970482;28;20033;-85
2022/07/18 06:48:23;;;;;;;10.77;5.80;;;;;;;22.63;44.70;102035.47;4969587;28;20023;-85
2022/07/18 06:50:49;;;;;;;12.20;5.85;;;;;;;22.87;44.06;102038.84;4969606;28;20051;-85
2022/07/18 06:53:14;;;;;;;8.60;5.57;;;;;;;23.08;43.54;102030.78;4967711;28;20129;-85
2022/07/18 06:55:39;;;;;;;11.20;6.25;;;;;;;23.20;43.28;102031.59;4969758;28;20058;-84
2022/07/18 06:58:04;;;;;;;12.02;5.75;;;;;;;23.32;42.88;102024.22;4971662;28;20027;-84
2022/07/18 07:00:30;;;;;;;10.48;5.75;;;;;;;23.45;44.42;102034.88;4984347;28;20050;-84
2022/07/18 07:02:55;;;;;;;8.23;5.13;;;;;;;23.67;43.19;102023.06;4971365;28;20789;-84
2022/07/18 07:05:21;;;;;;;8.75;4.75;;;;;;;23.91;41.22;102031.75;4971974;28;20030;-84
2022/07/18 07:07:47;;;;;;;10.48;5.00;;;;;;;24.16;40.74;102037.72;4973384;28;20084;-84
2022/07/18 07:10:13;;;;;;;9.07;4.90;;;;;;;24.17;38.29;102042.19;4968735;28;20031;-84
2022/07/18 07:12:47;;;;;;;9.93;5.60;;;;;;;24.15;40.99;102030.56;4971238;28;20492;-84
2022/07/18 07:15:14;;;;;;;8.10;4.82;;;;;;;24.34;41.84;102030.63;4970500;28;20042;-84
2022/07/18 07:17:39;;;;;;;6.80;4.30;;;;;;;24.50;39.95;102036.44;4967320;28;20539;-84
2022/07/18 07:20:06;;;;;;;46.28;26.73;;;;;;;24.80;38.43;102040.91;4970604;28;20047;-84
2022/07/18 07:22:40;;;;;;;15.32;7.22;;;;;;;25.04;39.36;102036.88;4970014;28;20074;-84
2022/07/18 07:25:06;;;;;;;11.10;4.18;;;;;;;25.29;37.90;102033.63;4971614;28;20090;-84
2022/07/18 07:27:31;;;;;;;6.03;3.88;;;;;;;25.55;38.58;102033.00;4971327;28;20035;-84
2022/07/18 07:29:56;;;;;;;9.68;3.70;;;;;;;25.86;36.45;102043.72;4984178;28;20023;-84
2022/07/18 07:32:21;;;;;;;6.53;3.63;;;;;;;26.17;36.42;102031.53;4966234;28;20644;-84
2022/07/18 07:34:47;;;;;;;8.52;5.00;;;;;;;26.50;34.80;102038.28;4965764;28;20027;-85
2022/07/18 07:37:12;;;;;;;9.98;3.70;;;;;;;26.94;34.82;102032.06;4969591;28;20023;-84
2022/07/18 07:39:37;;;;;;;9.27;3.75;;;;;;;27.42;35.00;102030.75;4969536;28;20034;-84
2022/07/18 07:42:03;;;;;;;7.95;3.15;;;;;;;27.70;34.16;102035.06;4968176;28;20134;-84
2022/07/18 07:44:28;;;;;;;5.70;3.30;;;;;;;28.30;32.42;102032.31;4965746;28;20023;-84
2022/07/18 07:46:53;;;;;;;5.47;2.53;;;;;;;28.83;30.00;102032.13;4969355;28;20030;-82
2022/07/18 07:49:18;;;;;;;4.38;2.90;;;;;;;29.06;26.93;102038.72;4970984;28;20476;-83
2022/07/18 07:51:44;;;;;;;5.97;2.50;;;;;;;29.38;26.61;102036.97;4983556;28;20018;-83
2022/07/18 07:54:09;;;;;;;7.47;3.28;;;;;;;29.58;26.31;102029.25;4970463;28;20062;-83
2022/07/18 07:56:34;;;;;;;3.63;2.30;;;;;;;29.89;26.16;102019.25;4970472;28;20101;-82
2022/07/18 07:59:01;;;;;;;4.95;2.80;;;;;;;30.08;26.59;102028.09;4969818;28;20101;-83
2022/07/18 08:01:26;;;;;;;3.83;2.33;;;;;;;30.06;25.79;102014.56;4968444;28;20030;-83
2022/07/18 08:03:52;;;;;;;5.68;2.65;;;;;;;30.21;24.75;102015.53;4969809;28;20065;-83
2022/07/18 08:06:17;;;;;;;3.95;2.38;;;;;;;30.23;24.95;102009.88;4970307;28;20023;-83
2022/07/18 08:08:42;;;;;;;2.88;2.28;;;;;;;30.17;24.91;102005.94;4984454;28;20035;-83
2022/07/18 08:11:08;;;;;;;6.57;2.83;;;;;;;30.51;25.88;102010.22;4967739;28;20385;-82
2022/07/18 08:13:33;;;;;;;6.30;3.65;;;;;;;31.07;24.65;102010.03;4969548;28;20129;-83
2022/07/18 08:15:58;;;;;;;6.10;2.53;;;;;;;31.37;23.92;102006.34;4966885;28;20084;-84
2022/07/18 08:18:24;;;;;;;3.08;2.28;;;;;;;31.73;23.01;102003.72;4965771;28;20027;-84
2022/07/18 08:20:49;;;;;;;4.15;2.78;;;;;;;32.19;22.96;102003.53;4967378;28;20444;-84
2022/07/18 08:23:16;;;;;;;3.58;2.30;;;;;;;32.87;23.92;101995.81;4964879;28;20030;-83
2022/07/18 08:25:44;;;;;;;6.32;2.40;;;;;;;33.24;22.04;101999.34;4963094;28;20030;-81
2022/07/18 08:28:09;;;;;;;3.83;2.10;;;;;;;33.43;23.20;101983.97;4968948;28;20023;-82
2022/07/18 08:30:35;;;;;;;4.18;2.55;;;;;;;33.98;22.06;101985.00;4967278;28;20034;-81
2022/07/18 08:33:01;;;;;;;6.50;2.50;;;;;;;34.25;21.37;101998.94;4969316;28;20027;-82
2022/07/18 08:35:28;;;;;;;5.05;2.58;;;;;;;34.38;21.87;101998.97;4967083;28;20077;-81
2022/07/18 08:37:53;;;;;;;4.28;2.53;;;;;;;34.92;20.45;101989.75;4969414;28;20042;-82
2022/07/18 08:40:19;;;;;;;5.75;2.72;;;;;;;35.31;19.64;101988.06;4983484;28;20023;-83
2022/07/18 08:42:44;;;;;;;3.90;2.38;;;;;;;35.65;20.67;101998.03;4970688;28;20037;-82
2022/07/18 08:45:10;;;;;;;3.72;2.50;;;;;;;36.03;22.44;101998.16;4969632;28;20061;-82
2022/07/18 08:47:35;;;;;;;4.53;2.10;;;;;;;36.30;21.02;102001.69;4971653;28;20042;-85
2022/07/18 08:50:02;;;;;;;6.40;2.40;;;;;;;36.58;18.63;102001.34;4969455;28;20034;-81
2022/07/18 08:52:29;;;;;;;5.13;2.75;;;;;;;36.76;19.40;102002.50;4968132;28;20042;-82
2022/07/18 08:54:56;;;;;;;6.05;2.38;;;;;;;37.00;20.26;102015.59;4983217;28;20062;-82
2022/07/18 08:57:21;;;;;;;5.82;2.50;;;;;;;37.35;18.50;102006.72;4969399;28;20035;-82
2022/07/18 08:59:47;;;;;;;4.22;2.30;;;;;;;37.59;19.17;102008.66;4967584;28;20123;-83
2022/07/18 09:02:12;;;;;;;4.70;2.20;;;;;;;38.01;17.85;101996.88;4968957;28;20054;-83
2022/07/18 09:04:43;;;;;;;4.45;2.80;;;;;;;38.38;17.98;102008.81;4968419;28;20031;-82
2022/07/18 09:07:09;;;;;;;3.78;2.20;;;;;;;38.45;17.10;102001.22;4969446;28;20089;-82
2022/07/18 09:09:37;;;;;;;3.13;1.75;;;;;;;38.92;16.76;102008.88;4968062;28;20460;-82
2022/07/18 09:12:05;;;;;;;4.47;2.22;;;;;;;39.20;16.37;102005.41;4959054;28;20032;-83
2022/07/18 09:14:38;;;;;;;3.80;2.17;;;;;;;39.48;17.00;102015.88;4961838;28;20126;-82
2022/07/18 09:17:08;;;;;;;7.07;3.40;;;;;;;39.93;17.62;102010.50;4967393;28;20389;-82
2022/07/18 09:19:33;;;;;;;4.00;2.30;;;;;;;40.21;15.80;101997.72;4967926;28;20030;-83
2022/07/18 09:22:21;;;;;;;4.55;2.47;;;;;;;40.22;16.88;102011.44;4968704;28;20058;-83
2022/07/18 09:24:54;;;;;;;3.60;2.00;;;;;;;40.22;18.40;102010.59;4967541;28;20195;-83
2022/07/18 09:27:38;;;;;;;5.07;3.50;;;;;;;40.87;16.99;101998.13;4968794;28;20194;-83
2022/07/18 09:30:08;;;;;;;3.85;2.38;;;;;;;41.26;14.93;102005.53;4965423;28;20408;-83
2022/07/18 09:32:34;;;;;;;4.05;2.50;;;;;;;41.65;15.80;102007.50;4967957;28;20038;-81
2022/07/18 09:35:08;;;;;;;4.57;2.03;;;;;;;41.83;15.33;102003.59;4971031;28;20026;-83
2022/07/18 09:37:34;;;;;;;4.57;2.30;;;;;;;42.02;14.65;102014.19;4971736;28;20095;-84
2022/07/18 09:40:24;;;;;;;7.13;2.22;;;;;;;42.37;16.26;102010.13;4970394;28;20362;-83
2022/07/18 09:42:52;;;;;;;6.60;2.85;;;;;;;42.15;13.69;102004.53;4977520;28;20011;-82
2022/07/18 09:45:26;;;;;;;4.32;1.90;;;;;;;42.24;13.87;102010.56;5003539;28;20018;-83
2022/07/18 09:47:55;;;;;;;4.57;1.77;;;;;;;42.08;14.18;102009.50;4990243;28;20027;-82
2022/07/18 09:50:24;;;;;;;3.95;2.20;;;;;;;42.47;13.30;102003.78;4985214;28;20046;-83
2022/07/18 09:53:16;;;;;;;2.55;1.75;;;;;;;43.09;14.71;102016.47;4979637;28;20065;-81
2022/07/18 09:55:53;;;;;;;5.60;1.90;;;;;;;42.83;14.25;102002.22;4976906;28;20038;-81
2022/07/18 09:58:28;;;;;;;4.22;1.95;;;;;;;42.83;14.24;102005.00;4968198;28;20037;-81
2022/07/18 10:00:55;;;;;;;3.58;1.52;;;;;;;42.74;13.70;102003.81;4966562;28;20455;-82
2022/07/18 10:03:22;;;;;;;3.42;1.48;;;;;;;43.39;13.25;102004.63;4968413;28;20023;-82
2022/07/18 10:05:50;;;;;;;2.00;1.50;;;;;;;43.66;12.42;102008.19;4969138;28;20055;-82
2022/07/18 10:08:19;;;;;;;4.30;1.80;;;;;;;44.09;13.54;102014.56;4972041;28;20088;-82
2022/07/18 10:10:47;;;;;;;4.60;1.80;;;;;;;44.39;11.79;102005.41;4965799;28;20019;-83
2022/07/18 10:13:14;;;;;;;4.50;1.80;;;;;;;44.03;13.14;102007.25;4977729;28;20110;-82
2022/07/18 10:15:41;;;;;;;3.55;1.70;;;;;;;44.03;12.54;102004.44;4962440;28;20267;-83
2022/07/18 10:18:09;;;;;;;4.60;1.73;;;;;;;44.43;12.42;102002.88;4961997;28;20030;-82
2022/07/18 10:20:44;;;;;;;2.78;1.85;;;;;;;44.89;12.81;101995.38;4971137;28;20046;-81
2022/07/18 10:23:20;;;;;;;3.60;1.70;;;;;;;45.50;12.01;102004.91;4970873;28;20528;-82
2022/07/18 10:26:13;;;;;;;3.28;1.70;;;;;;;45.79;12.87;102002.28;4969755;28;20030;-83
2022/07/18 10:28:57;;;;;;;2.88;1.80;;;;;;;45.51;13.06;101998.97;4970814;28;20200;-82
2022/07/18 10:31:31;;;;;;;2.88;1.70;;;;;;;44.96;12.10;101995.09;4971141;28;20392;-82
2022/07/18 10:34:06;;;;;;;4.15;1.50;;;;;;;45.21;12.57;102003.53;4970716;28;20042;-82
2022/07/18 10:36:32;;;;;;;2.88;1.80;;;;;;;45.46;11.88;101991.41;4973031;28;20038;-82
2022/07/18 10:39:14;;;;;;;4.55;2.20;;;;;;;45.78;12.41;101995.81;4976647;28;20495;-82
2022/07/18 10:41:39;;;;;;;4.33;2.27;;;;;;;45.66;11.83;101992.47;4971677;28;20823;-82
2022/07/18 10:44:22;;;;;;;3.60;2.27;;;;;;;45.67;12.47;101994.16;4973701;28;20030;-82
2022/07/18 10:47:03;;;;;;;2.45;1.65;;;;;;;45.65;12.40;101996.41;4976907;28;20041;-81
2022/07/18 10:49:49;;;;;;;3.67;1.77;;;;;;;46.09;12.12;101992.84;4977840;28;20125;-81
2022/07/18 10:52:26;;;;;;;2.30;1.70;;;;;;;46.17;12.10;101987.47;4981575;28;20026;-81
2022/07/18 10:55:04;;;;;;;2.42;1.73;;;;;;;46.44;11.79;101986.19;4975568;28;20387;-82
2022/07/18 10:57:38;;;;;;;2.92;1.55;;;;;;;46.00;10.53;101983.34;4973710;28;20473;-82
2022/07/18 11:00:08;;;;;;;3.05;1.80;;;;;;;45.77;11.18;101994.09;4971761;28;20035;-84
2022/07/18 11:02:42;;;;;;;6.05;1.80;;;;;;;45.61;10.76;101981.22;4972705;28;20031;-82
2022/07/18 11:05:22;;;;;;;4.68;2.50;;;;;;;45.59;11.98;101984.34;4972027;28;20464;-82
2022/07/18 11:08:03;;;;;;;3.83;1.83;;;;;;;46.03;11.97;101974.31;4970741;28;20027;-82
2022/07/18 11:10:44;;;;;;;3.13;1.70;;;;;;;46.52;11.44;101977.09;4970276;28;20031;-82
2022/07/18 11:13:24;;;;;;;3.17;1.92;;;;;;;46.95;10.84;101977.38;4970582;28;20420;-82
2022/07/18 11:15:59;;;;;;;2.20;1.83;;;;;;;46.22;10.77;101972.53;4963650;28;20034;-81
2022/07/18 11:18:25;;;;;;;6.50;1.73;;;;;;;45.57;11.33;101974.50;4971858;28;20340;-82
2022/07/18 11:20:51;;;;;;;4.05;2.15;;;;;;;45.85;11.61;101973.00;4969120;28;20038;-82
2022/07/18 11:23:18;;;;;;;4.35;1.90;;;;;;;46.00;10.73;101966.47;4959278;28;20169;-82
2022/07/18 11:25:44;;;;;;;5.50;2.13;;;;;;;46.46;10.58;101969.00;4972439;28;20023;-82
2022/07/18 11:28:11;;;;;;;2.78;2.15;;;;;;;46.88;10.54;101965.56;4970150;28;20109;-82